bureau de piste


METAR LFMD 161300Z AUTO 17009KT 140V200 9999 FEW056 27/19 Q1014 NOSIG

TAF LFMD 160800Z 1609/1709 16010KT CAVOK   BECMG 1617/1619 VRB03KT   PROB40   TEMPO 1703/1706 BKN014   BECMG 1707/1709 16010KT

INFORMATION ADDS - 1318 UTC 16 Jul 2020


 


MEME SI LE RISQUE SANITAIRE PARAIT MOINS PRESENT, RESPECTEZ LES CONDITIONS DE VOL


UNE LICENCE ECHUE PENDANT LE CONFINEMENT NE PERMET PLUS DE VOLER EN CDB.

PENSEZ A PROLONGER VOS LICENCES – VOIR LES CONDITIONS DE PROLONGATION


Plus d’information sur les terrains : LFMD et VALBERG

Les commentaires sont clos.